createdAt,value
2022-10-11T00:01:15.912Z,96979.81
2022-10-11T00:03:42.228Z,96983.66
2022-10-11T00:06:09.347Z,96985.31
2022-10-11T00:08:36.117Z,96987.81
2022-10-11T00:11:06.249Z,96990.81
2022-10-11T00:13:33.064Z,96989.63
2022-10-11T00:15:59.700Z,96987.47
2022-10-11T00:18:26.299Z,96983.53
2022-10-11T00:21:07.693Z,96988.81
2022-10-11T00:23:34.218Z,96981.53
2022-10-11T00:26:03.301Z,96983.00
2022-10-11T00:28:30.465Z,96984.28
2022-10-11T00:30:57.189Z,96979.34
2022-10-11T00:33:23.659Z,96987.00
2022-10-11T00:35:50.082Z,96984.50
2022-10-11T00:38:16.908Z,96986.50
2022-10-11T00:40:43.813Z,96985.44
2022-10-11T00:43:19.108Z,96987.09
2022-10-11T00:45:51.129Z,96984.59
2022-10-11T00:48:23.249Z,96982.84
2022-10-11T00:50:49.700Z,96990.47
2022-10-11T00:53:16.001Z,96988.81
2022-10-11T00:55:50.581Z,96983.69
2022-10-11T00:58:18.677Z,96982.00
2022-10-11T01:00:45.080Z,96982.47
2022-10-11T01:03:11.406Z,96981.84
2022-10-11T01:05:39.593Z,96981.84
2022-10-11T01:08:08.105Z,96981.78
2022-10-11T01:10:35.090Z,96979.59
2022-10-11T01:13:16.539Z,96985.41
2022-10-11T01:15:55.077Z,96974.19
2022-10-11T01:18:30.929Z,96982.31
2022-10-11T01:21:05.132Z,96977.22
2022-10-11T01:23:40.423Z,96979.22
2022-10-11T01:26:51.084Z,96984.56
2022-10-11T01:29:32.548Z,96993.69
2022-10-11T01:32:07.463Z,96987.88
2022-10-11T01:34:52.457Z,96982.78
2022-10-11T01:37:36.923Z,96983.63
2022-10-11T01:40:32.415Z,96979.16
2022-10-11T01:43:00.548Z,96981.53
2022-10-11T01:45:27.224Z,96994.84
2022-10-11T01:48:09.892Z,96988.06
2022-10-11T01:50:47.543Z,96984.28
2022-10-11T01:53:47.159Z,96978.34
2022-10-11T01:56:31.676Z,96975.69
2022-10-11T01:59:16.462Z,96979.25
2022-10-11T02:01:45.738Z,96979.41
2022-10-11T02:04:22.318Z,96974.59
2022-10-11T02:07:10.781Z,96974.59
2022-10-11T02:09:56.578Z,96975.47
2022-10-11T02:12:32.750Z,96985.72
2022-10-11T02:15:02.742Z,96979.94
2022-10-11T02:17:37.126Z,96979.13
2022-10-11T02:20:09.429Z,96982.59
2022-10-11T02:22:38.618Z,96984.28
2022-10-11T02:25:10.533Z,96981.13
2022-10-11T02:27:39.438Z,96976.47
2022-10-11T02:30:09.371Z,96982.78
2022-10-11T02:32:39.908Z,96979.63
2022-10-11T02:35:07.044Z,96982.44
2022-10-11T02:37:43.457Z,96979.13
2022-10-11T02:40:21.655Z,96976.16
2022-10-11T02:42:58.682Z,96971.84
2022-10-11T02:45:56.060Z,96973.53
2022-10-11T02:48:25.015Z,96968.53
2022-10-11T02:50:53.192Z,96964.38
2022-10-11T02:53:21.043Z,96957.94
2022-10-11T02:55:49.832Z,96954.28
2022-10-11T02:58:16.151Z,96962.22
2022-10-11T03:00:42.687Z,96966.56
2022-10-11T03:03:09.022Z,96962.59
2022-10-11T03:05:41.396Z,96958.63
2022-10-11T03:08:08.445Z,96955.78
2022-10-11T03:10:35.429Z,96962.09
2022-10-11T03:13:02.362Z,96960.94
2022-10-11T03:15:29.160Z,96963.56
2022-10-11T03:17:55.973Z,96970.38
2022-10-11T03:20:22.578Z,96962.94
2022-10-11T03:22:48.900Z,96971.84
2022-10-11T03:25:15.301Z,96968.84
2022-10-11T03:27:41.589Z,96959.88
2022-10-11T03:30:14.191Z,96971.31
2022-10-11T03:32:45.500Z,96966.69
2022-10-11T03:35:11.849Z,96967.34
2022-10-11T03:37:38.245Z,96963.91
2022-10-11T03:40:06.426Z,96965.06
2022-10-11T03:42:32.716Z,96967.84
2022-10-11T03:45:01.508Z,96971.50
2022-10-11T03:47:27.793Z,96972.81
2022-10-11T03:49:54.097Z,96971.63
2022-10-11T03:52:20.434Z,96974.28
2022-10-11T03:54:46.769Z,96970.44
2022-10-11T03:57:13.261Z,96968.44
2022-10-11T03:59:39.747Z,96974.03
2022-10-11T04:02:06.326Z,96977.06
2022-10-11T04:04:32.857Z,96968.31
2022-10-11T04:06:59.199Z,96972.63
2022-10-11T04:09:25.470Z,96968.84
2022-10-11T04:11:51.792Z,96963.22
2022-10-11T04:14:18.135Z,96965.34
2022-10-11T04:16:44.430Z,96963.66
2022-10-11T04:19:10.708Z,96970.47
2022-10-11T04:21:36.984Z,96968.47
2022-10-11T04:24:03.519Z,96967.66
2022-10-11T04:26:29.952Z,96968.19
2022-10-11T04:28:56.309Z,96962.72
2022-10-11T04:31:23.448Z,96966.72
2022-10-11T04:33:50.176Z,96964.88
2022-10-11T04:36:16.470Z,96964.22
2022-10-11T04:38:42.805Z,96971.34
2022-10-11T04:41:12.272Z,96975.47
2022-10-11T04:43:39.018Z,96981.09
2022-10-11T04:46:06.331Z,96971.50
2022-10-11T04:48:32.902Z,96979.78
2022-10-11T04:50:59.275Z,96979.28
2022-10-11T04:53:25.641Z,96983.06
2022-10-11T04:56:14.989Z,96974.28
2022-10-11T04:58:41.555Z,96976.63
2022-10-11T05:01:08.944Z,96983.06
2022-10-11T05:03:35.604Z,96982.41
2022-10-11T05:06:05.578Z,96986.84
2022-10-11T05:08:32.761Z,96989.28
2022-10-11T05:11:05.767Z,96990.63
2022-10-11T05:13:34.038Z,96990.72
2022-10-11T05:16:00.377Z,96991.38
2022-10-11T05:18:27.339Z,96996.69
2022-10-11T05:21:05.842Z,97004.28
2022-10-11T05:23:33.981Z,96998.47
2022-10-11T05:26:01.670Z,97002.44
2022-10-11T05:28:28.206Z,97000.66
2022-10-11T05:30:55.018Z,97002.78
2022-10-11T05:33:21.462Z,97001.97
2022-10-11T05:35:47.963Z,97001.19
2022-10-11T05:38:14.335Z,97002.16
2022-10-11T05:40:40.666Z,97000.84
2022-10-11T05:43:07.343Z,97006.13
2022-10-11T05:45:38.731Z,97005.28
2022-10-11T05:48:05.896Z,97000.66
2022-10-11T05:50:32.767Z,97011.75
2022-10-11T05:52:59.242Z,97008.88
2022-10-11T05:55:25.736Z,97021.63
2022-10-11T05:57:56.419Z,97016.31
2022-10-11T06:00:25.090Z,97019.34
2022-10-11T06:02:52.349Z,97024.50
2022-10-11T06:05:18.654Z,97022.88
2022-10-11T06:07:44.947Z,97028.53
2022-10-11T06:10:11.852Z,97023.63
2022-10-11T06:12:38.678Z,97028.38
2022-10-11T06:15:06.276Z,97028.47
2022-10-11T06:17:32.646Z,97031.69
2022-10-11T06:19:58.929Z,97040.28
2022-10-11T06:22:26.548Z,97029.03
2022-10-11T06:24:52.847Z,97030.34
2022-10-11T06:27:19.340Z,97038.84
2022-10-11T06:29:45.662Z,97046.13
2022-10-11T06:32:13.245Z,97040.69
2022-10-11T06:34:39.542Z,97045.84
2022-10-11T06:37:05.858Z,97048.38
2022-10-11T06:39:32.254Z,97045.78
2022-10-11T06:41:58.548Z,97043.97
2022-10-11T06:44:26.204Z,97059.38
2022-10-11T06:46:52.502Z,97058.22
2022-10-11T06:49:23.155Z,97057.06
2022-10-11T06:51:50.299Z,97057.25
2022-10-11T06:54:16.636Z,97058.78
2022-10-11T06:56:44.595Z,97063.06
2022-10-11T06:59:12.022Z,97063.13
2022-10-11T07:01:38.383Z,97067.94
2022-10-11T07:04:04.956Z,97069.81
2022-10-11T07:06:32.094Z,97072.94
2022-10-11T07:09:00.390Z,97074.78
2022-10-11T07:11:28.091Z,97077.63
2022-10-11T07:13:57.024Z,97073.78
2022-10-11T07:16:24.387Z,97070.91
2022-10-11T07:19:00.695Z,97082.91
2022-10-11T07:21:29.367Z,97087.59
2022-10-11T07:23:55.697Z,97085.38
2022-10-11T07:26:22.062Z,97084.94
2022-10-11T07:28:48.517Z,97087.13
2022-10-11T07:31:17.939Z,97085.84
2022-10-11T07:33:44.523Z,97080.16
2022-10-11T07:36:11.773Z,97091.47
2022-10-11T07:38:43.560Z,97083.56
2022-10-11T07:41:10.329Z,97081.09
2022-10-11T07:43:37.890Z,97087.56
2022-10-11T07:46:05.650Z,97080.97
2022-10-11T07:48:34.390Z,97091.56
2022-10-11T07:51:10.101Z,97091.25
2022-10-11T07:53:47.361Z,97084.78
2022-10-11T07:56:16.288Z,97093.91
2022-10-11T07:58:43.433Z,97094.59
2022-10-11T08:01:11.166Z,97096.25
2022-10-11T08:03:38.231Z,97094.78
2022-10-11T08:06:08.566Z,97102.38
2022-10-11T08:08:36.533Z,97096.59
2022-10-11T08:11:03.659Z,97101.56
2022-10-11T08:13:29.976Z,97102.56
2022-10-11T08:15:57.001Z,97105.22
2022-10-11T08:18:24.272Z,97101.22
2022-10-11T08:20:50.767Z,97094.59
2022-10-11T08:23:18.481Z,97101.06
2022-10-11T08:25:46.926Z,97098.75
2022-10-11T08:28:17.931Z,97104.25
2022-10-11T08:30:49.857Z,97097.31
2022-10-11T08:33:17.876Z,97096.47
2022-10-11T08:35:44.633Z,97097.91
2022-10-11T08:38:11.378Z,97106.91
2022-10-11T08:40:38.193Z,97097.81
2022-10-11T08:43:08.276Z,97099.78
2022-10-11T08:45:46.067Z,97096.97
2022-10-11T08:48:19.868Z,97104.22
2022-10-11T08:50:49.871Z,97100.56
2022-10-11T08:53:27.268Z,97098.91
2022-10-11T08:55:54.777Z,97100.06
2022-10-11T08:58:33.062Z,97102.22
2022-10-11T09:01:01.015Z,97095.94
2022-10-11T09:03:40.464Z,97098.91
2022-10-11T09:06:07.400Z,97102.88
2022-10-11T09:09:15.420Z,97101.56
2022-10-11T09:12:02.928Z,97101.91
2022-10-11T09:14:34.996Z,97090.63
2022-10-11T09:17:39.770Z,97097.38
2022-10-11T09:20:23.969Z,97091.59
2022-10-11T09:23:01.963Z,97094.09
2022-10-11T09:25:49.410Z,97090.75
2022-10-11T09:28:44.421Z,97089.78
2022-10-11T09:31:11.584Z,97085.34
2022-10-11T09:33:44.048Z,97096.59
2022-10-11T09:36:25.699Z,97094.91
2022-10-11T09:39:29.654Z,97083.78
2022-10-11T09:42:03.387Z,97094.53
2022-10-11T09:44:36.955Z,97094.41
2022-10-11T09:47:04.443Z,97098.38
2022-10-11T09:49:44.728Z,97092.19
2022-10-11T09:52:15.806Z,97095.31
2022-10-11T09:54:48.527Z,97097.72
2022-10-11T09:57:36.847Z,97095.16
2022-10-11T10:00:11.902Z,97092.31
2022-10-11T10:02:48.780Z,97091.56
2022-10-11T10:05:36.703Z,97095.94
2022-10-11T10:08:22.777Z,97096.09
2022-10-11T10:10:59.641Z,97097.38
2022-10-11T10:13:47.765Z,97088.94
2022-10-11T10:16:25.072Z,97090.25
2022-10-11T10:18:59.140Z,97090.22
2022-10-11T10:21:33.896Z,97083.09
2022-10-11T10:24:05.131Z,97088.94
2022-10-11T10:26:33.280Z,97084.13
2022-10-11T10:29:20.003Z,97084.13
2022-10-11T10:32:12.979Z,97080.09
2022-10-11T10:34:38.409Z,97084.97
2022-10-11T10:37:25.194Z,97082.44
2022-10-11T10:40:06.346Z,97077.09
2022-10-11T10:42:32.962Z,97086.19
2022-10-11T10:44:59.900Z,97080.56
2022-10-11T10:47:45.984Z,97084.53
2022-10-11T10:50:30.950Z,97083.34
2022-10-11T10:53:23.068Z,97085.34
2022-10-11T10:56:00.996Z,97082.53
2022-10-11T10:58:52.367Z,97078.56
2022-10-11T11:01:30.458Z,97075.63
2022-10-11T11:04:15.882Z,97065.88
2022-10-11T11:06:55.355Z,97063.78
2022-10-11T11:09:49.709Z,97066.03
2022-10-11T11:12:28.244Z,97067.22
2022-10-11T11:15:11.446Z,97065.66
2022-10-11T11:17:58.032Z,97068.03
2022-10-11T11:20:40.172Z,97063.06
2022-10-11T11:23:20.571Z,97056.84
2022-10-11T11:25:53.895Z,97058.06
2022-10-11T11:28:57.910Z,97054.06
2022-10-11T11:31:57.347Z,97047.06
2022-10-11T11:34:33.140Z,97046.22
2022-10-11T11:37:04.168Z,97047.78
2022-10-11T11:40:14.025Z,97045.75
2022-10-11T11:42:51.301Z,97036.75
2022-10-11T11:45:41.613Z,97038.22
2022-10-11T11:48:19.704Z,97030.47
2022-10-11T11:51:03.665Z,97032.06
2022-10-11T11:53:46.542Z,97030.84
2022-10-11T11:56:33.065Z,97029.03
2022-10-11T11:59:19.658Z,97027.63
2022-10-11T12:01:56.666Z,97028.75
2022-10-11T12:04:35.970Z,97020.03
2022-10-11T12:07:16.264Z,97014.47
2022-10-11T12:09:46.383Z,97022.00
2022-10-11T12:12:33.872Z,97021.31
2022-10-11T12:15:09.071Z,97014.69
2022-10-11T12:17:57.856Z,97012.59
2022-10-11T12:20:26.975Z,97011.34
2022-10-11T12:23:19.740Z,97011.38
2022-10-11T12:26:06.288Z,96997.94
2022-10-11T12:28:41.938Z,97002.13
2022-10-11T12:31:23.648Z,96994.69
2022-10-11T12:34:02.275Z,96993.38
2022-10-11T12:36:32.798Z,96995.13
2022-10-11T12:39:20.858Z,96987.88
2022-10-11T12:41:47.087Z,96991.66
2022-10-11T12:44:22.599Z,96993.94
2022-10-11T12:46:54.951Z,96990.41
2022-10-11T12:49:31.038Z,96984.56
2022-10-11T12:52:34.572Z,96978.06
2022-10-11T12:55:50.637Z,96977.78
2022-10-11T12:58:27.941Z,96973.97
2022-10-11T13:00:57.682Z,96974.06
2022-10-11T13:03:40.818Z,96973.03
2022-10-11T13:06:30.849Z,96970.31
2022-10-11T13:09:14.809Z,96963.81
2022-10-11T13:11:50.803Z,96967.84
2022-10-11T13:14:21.394Z,96960.78
2022-10-11T13:16:55.693Z,96969.88
2022-10-11T13:19:22.901Z,96971.31
2022-10-11T13:21:54.393Z,96967.16
2022-10-11T13:24:23.036Z,96969.94
2022-10-11T13:27:03.443Z,96963.19
2022-10-11T13:29:36.259Z,96963.63
2022-10-11T13:32:12.381Z,96967.31
2022-10-11T13:34:41.557Z,96959.28
2022-10-11T13:37:15.103Z,96957.84
2022-10-11T13:39:41.723Z,96958.69
2022-10-11T13:42:13.320Z,96967.72
2022-10-11T13:44:41.236Z,96962.75
2022-10-11T13:47:12.922Z,96952.41
2022-10-11T13:49:40.083Z,96959.81
2022-10-11T13:52:19.781Z,96956.13
2022-10-11T13:55:04.056Z,96951.03
2022-10-11T13:57:43.422Z,96956.38
2022-10-11T14:00:34.827Z,96958.56
2022-10-11T14:03:06.658Z,96948.00
2022-10-11T14:05:35.650Z,96948.00
2022-10-11T14:08:06.244Z,96948.59
2022-10-11T14:10:33.320Z,96947.75
2022-10-11T14:13:25.335Z,96953.53
2022-10-11T14:16:18.845Z,96953.44
2022-10-11T14:18:48.554Z,96953.88
2022-10-11T14:21:39.882Z,96946.63
2022-10-11T14:24:10.413Z,96950.72
2022-10-11T14:26:40.637Z,96947.13
2022-10-11T14:29:12.228Z,96945.31
2022-10-11T14:31:42.012Z,96951.28
2022-10-11T14:34:16.658Z,96948.78
2022-10-11T14:36:42.991Z,96948.59
2022-10-11T14:39:18.559Z,96952.69
2022-10-11T14:41:45.692Z,96952.28
2022-10-11T14:44:12.945Z,96950.22
2022-10-11T14:46:40.809Z,96948.59
2022-10-11T14:49:21.902Z,96949.41
2022-10-11T14:51:49.962Z,96950.66
2022-10-11T14:54:18.889Z,96958.44
2022-10-11T14:56:46.177Z,96954.44
2022-10-11T14:59:18.664Z,96948.63
2022-10-11T15:01:46.865Z,96949.09
2022-10-11T15:04:13.320Z,96958.13
2022-10-11T15:06:41.135Z,96951.81
2022-10-11T15:09:08.102Z,96951.59
2022-10-11T15:11:36.872Z,96946.06
2022-10-11T15:14:03.840Z,96955.91
2022-10-11T15:16:30.447Z,96954.94
2022-10-11T15:18:56.798Z,96954.44
2022-10-11T15:21:25.879Z,96964.75
2022-10-11T15:23:53.808Z,96956.47
2022-10-11T15:26:29.367Z,96953.97
2022-10-11T15:28:57.005Z,96957.47
2022-10-11T15:31:23.810Z,96950.16
2022-10-11T15:33:50.425Z,96954.22
2022-10-11T15:36:19.632Z,96958.59
2022-10-11T15:38:47.467Z,96951.03
2022-10-11T15:41:17.454Z,96961.31
2022-10-11T15:43:45.207Z,96967.09
2022-10-11T15:46:15.767Z,96956.72
2022-10-11T15:48:42.060Z,96961.66
2022-10-11T15:51:08.468Z,96961.66
2022-10-11T15:53:35.191Z,96960.31
2022-10-11T15:56:04.988Z,96966.09
2022-10-11T15:58:34.464Z,96973.06
2022-10-11T16:01:05.931Z,96967.69
2022-10-11T16:03:33.219Z,96981.13
2022-10-11T16:06:04.929Z,96966.78
2022-10-11T16:08:32.922Z,96975.81
2022-10-11T16:10:59.348Z,96976.22
2022-10-11T16:13:25.642Z,96979.78
2022-10-11T16:15:52.109Z,96978.66
2022-10-11T16:18:21.009Z,96976.00
2022-10-11T16:20:50.919Z,96981.44
2022-10-11T16:23:17.586Z,96985.09
2022-10-11T16:25:46.221Z,96983.44
2022-10-11T16:28:12.532Z,96978.56
2022-10-11T16:30:45.280Z,96974.06
2022-10-11T16:33:11.591Z,96971.38
2022-10-11T16:35:41.489Z,96976.47
2022-10-11T16:38:08.227Z,96974.47
2022-10-11T16:40:35.963Z,96990.63
2022-10-11T16:43:07.368Z,96978.56
2022-10-11T16:45:34.925Z,96980.59
2022-10-11T16:48:01.337Z,96990.44
2022-10-11T16:50:28.908Z,96986.22
2022-10-11T16:52:55.386Z,96982.47
2022-10-11T16:55:22.487Z,96991.91
2022-10-11T16:57:48.824Z,96992.03
2022-10-11T17:00:15.853Z,97000.03
2022-10-11T17:02:42.163Z,96998.00
2022-10-11T17:05:08.527Z,97001.59
2022-10-11T17:07:35.139Z,97003.69
2022-10-11T17:10:01.602Z,97005.78
2022-10-11T17:12:28.603Z,97010.56
2022-10-11T17:14:55.268Z,97015.72
2022-10-11T17:17:21.826Z,97009.84
2022-10-11T17:19:48.200Z,97007.56
2022-10-11T17:22:18.306Z,97013.44
2022-10-11T17:24:45.097Z,97011.09
2022-10-11T17:27:11.853Z,97004.50
2022-10-11T17:29:38.348Z,97006.97
2022-10-11T17:32:04.837Z,97008.41
2022-10-11T17:34:31.231Z,97014.75
2022-10-11T17:36:57.564Z,97011.06
2022-10-11T17:39:23.998Z,97013.47
2022-10-11T17:41:51.051Z,97012.47
2022-10-11T17:44:18.342Z,97011.91
2022-10-11T17:46:45.125Z,97006.47
2022-10-11T17:49:11.823Z,97014.34
2022-10-11T17:51:38.984Z,97010.03
2022-10-11T17:54:06.125Z,97018.94
2022-10-11T17:56:37.668Z,97013.25
2022-10-11T17:59:04.408Z,97013.25
2022-10-11T18:01:30.821Z,97024.34
2022-10-11T18:04:00.320Z,97026.66
2022-10-11T18:06:29.200Z,97026.16
2022-10-11T18:08:57.218Z,97025.41
2022-10-11T18:11:23.933Z,97022.41
2022-10-11T18:13:53.102Z,97024.13
2022-10-11T18:16:21.783Z,97018.50
2022-10-11T18:18:48.501Z,97022.69
2022-10-11T18:21:16.053Z,97018.91
2022-10-11T18:23:42.499Z,97024.59
2022-10-11T18:26:10.494Z,97016.66
2022-10-11T18:28:37.022Z,97012.31
2022-10-11T18:31:13.209Z,97018.91
2022-10-11T18:33:40.930Z,97022.63
2022-10-11T18:36:09.166Z,97014.81
2022-10-11T18:38:35.791Z,97020.13
2022-10-11T18:41:07.458Z,97021.25
2022-10-11T18:43:35.037Z,97027.91
2022-10-11T18:46:13.973Z,97018.31
2022-10-11T18:48:41.998Z,97032.50
2022-10-11T18:51:14.860Z,97036.00
2022-10-11T18:53:41.994Z,97029.38
2022-10-11T18:56:10.358Z,97035.50
2022-10-11T18:58:38.181Z,97027.25
2022-10-11T19:01:10.255Z,97027.72
2022-10-11T19:03:37.128Z,97026.75
2022-10-11T19:06:09.523Z,97036.41
2022-10-11T19:08:36.023Z,97025.94
2022-10-11T19:11:10.430Z,97032.13
2022-10-11T19:13:36.853Z,97036.78
2022-10-11T19:16:08.763Z,97033.97
2022-10-11T19:18:38.344Z,97029.56
2022-10-11T19:21:12.353Z,97033.34
2022-10-11T19:23:41.027Z,97029.03
2022-10-11T19:26:19.550Z,97029.84
2022-10-11T19:28:46.827Z,97036.56
2022-10-11T19:31:16.915Z,97026.75
2022-10-11T19:33:45.321Z,97030.91
2022-10-11T19:36:13.898Z,97030.56
2022-10-11T19:38:43.965Z,97031.22
2022-10-11T19:41:10.788Z,97027.41
2022-10-11T19:43:37.068Z,97038.22
2022-10-11T19:46:09.432Z,97042.38
2022-10-11T19:48:37.997Z,97030.91
2022-10-11T19:51:24.580Z,97038.72
2022-10-11T19:54:04.594Z,97038.56
2022-10-11T19:56:33.287Z,97037.78
2022-10-11T19:59:00.725Z,97042.59
2022-10-11T20:01:31.426Z,97039.94
2022-10-11T20:04:02.129Z,97048.88
2022-10-11T20:06:29.008Z,97048.03
2022-10-11T20:09:16.608Z,97054.50
2022-10-11T20:11:41.928Z,97047.84
2022-10-11T20:14:08.678Z,97049.84
2022-10-11T20:16:35.529Z,97046.19
2022-10-11T20:19:02.048Z,97050.81
2022-10-11T20:21:29.687Z,97050.81
2022-10-11T20:24:01.850Z,97049.16
2022-10-11T20:26:30.050Z,97052.28
2022-10-11T20:28:57.415Z,97049.47
2022-10-11T20:31:27.643Z,97049.50
2022-10-11T20:33:56.852Z,97050.09
2022-10-11T20:36:24.163Z,97050.75
2022-10-11T20:38:51.585Z,97053.91
2022-10-11T20:41:21.545Z,97052.72
2022-10-11T20:43:49.917Z,97050.75
2022-10-11T20:46:22.181Z,97056.03
2022-10-11T20:48:58.901Z,97053.22
2022-10-11T20:51:28.521Z,97053.69
2022-10-11T20:53:54.900Z,97053.88
2022-10-11T20:56:23.935Z,97052.38
2022-10-11T20:58:52.600Z,97055.81
2022-10-11T21:01:24.355Z,97046.56
2022-10-11T21:03:50.668Z,97045.94
2022-10-11T21:06:17.052Z,97043.13
2022-10-11T21:08:43.798Z,97054.09
2022-10-11T21:11:10.891Z,97043.00
2022-10-11T21:13:37.695Z,97051.75
2022-10-11T21:16:22.007Z,97046.13
2022-10-11T21:18:55.994Z,97043.63
2022-10-11T21:21:26.185Z,97050.41
2022-10-11T21:23:57.041Z,97036.69
2022-10-11T21:26:23.518Z,97036.50
2022-10-11T21:28:49.910Z,97041.16
2022-10-11T21:31:18.080Z,97041.44
2022-10-11T21:33:44.972Z,97043.63
2022-10-11T21:36:16.624Z,97033.53
2022-10-11T21:38:44.556Z,97036.34
2022-10-11T21:41:15.965Z,97038.16
2022-10-11T21:43:42.510Z,97036.50
2022-10-11T21:46:13.860Z,97037.09
2022-10-11T21:48:40.523Z,97046.34
2022-10-11T21:51:07.287Z,97041.72
2022-10-11T21:53:33.760Z,97042.22
2022-10-11T21:56:03.269Z,97036.94
2022-10-11T21:58:29.681Z,97034.66
2022-10-11T22:00:55.994Z,97047.13
2022-10-11T22:03:22.321Z,97045.09
2022-10-11T22:05:48.676Z,97045.88
2022-10-11T22:08:15.361Z,97047.47
2022-10-11T22:10:51.932Z,97048.84
2022-10-11T22:13:18.229Z,97045.34
2022-10-11T22:15:44.529Z,97045.88
2022-10-11T22:18:10.915Z,97050.53
2022-10-11T22:20:37.204Z,97047.84
2022-10-11T22:23:03.762Z,97047.84
2022-10-11T22:25:30.627Z,97051.19
2022-10-11T22:27:56.920Z,97050.41
2022-10-11T22:30:23.219Z,97048.69
2022-10-11T22:32:51.057Z,97039.78
2022-10-11T22:35:17.336Z,97041.44
2022-10-11T22:37:44.058Z,97034.59
2022-10-11T22:40:10.520Z,97040.19
2022-10-11T22:42:36.893Z,97041.19
2022-10-11T22:45:03.875Z,97036.72
2022-10-11T22:47:30.192Z,97036.84
2022-10-11T22:49:56.471Z,97030.63
2022-10-11T22:52:22.790Z,97036.47
2022-10-11T22:54:49.066Z,97040.56
2022-10-11T22:57:15.387Z,97033.44
2022-10-11T22:59:41.713Z,97038.91
2022-10-11T23:02:08.260Z,97038.84
2022-10-11T23:04:34.558Z,97040.59
2022-10-11T23:07:04.807Z,97032.56
2022-10-11T23:09:31.619Z,97038.19
2022-10-11T23:11:59.422Z,97027.53
2022-10-11T23:14:25.754Z,97030.31
2022-10-11T23:16:52.386Z,97033.16
2022-10-11T23:19:18.993Z,97030.97
2022-10-11T23:21:45.309Z,97034.22
2022-10-11T23:24:11.658Z,97032.63
2022-10-11T23:26:38.029Z,97030.00
2022-10-11T23:29:04.341Z,97037.34
2022-10-11T23:31:30.714Z,97026.63
2022-10-11T23:33:57.487Z,97026.38
2022-10-11T23:36:25.682Z,97034.94
2022-10-11T23:38:57.259Z,97036.84
2022-10-11T23:41:28.056Z,97037.66
2022-10-11T23:43:54.606Z,97036.66
2022-10-11T23:46:21.404Z,97040.31
2022-10-11T23:48:48.239Z,97039.13
2022-10-11T23:51:14.604Z,97035.34
2022-10-11T23:53:40.892Z,97040.31
2022-10-11T23:56:07.728Z,97039.25
2022-10-11T23:58:34.155Z,97040.59
